sensor_id;sensor_type;location;lat;lon;timestamp;temperature;humidity
59881;DHT22;45751;51.380;10.326;2022-07-29T00:02:26;19.40;45.70
59881;DHT22;45751;51.380;10.326;2022-07-29T00:04:53;19.30;45.70
59881;DHT22;45751;51.380;10.326;2022-07-29T00:07:20;19.40;45.80
59881;DHT22;45751;51.380;10.326;2022-07-29T00:09:47;19.40;45.80
59881;DHT22;45751;51.380;10.326;2022-07-29T00:12:19;19.30;46.00
59881;DHT22;45751;51.380;10.326;2022-07-29T00:14:56;19.30;46.10
59881;DHT22;45751;51.380;10.326;2022-07-29T00:17:23;19.10;46.20
59881;DHT22;45751;51.380;10.326;2022-07-29T00:19:51;19.20;46.40
59881;DHT22;45751;51.380;10.326;2022-07-29T00:22:19;19.20;46.50
59881;DHT22;45751;51.380;10.326;2022-07-29T00:24:47;19.20;46.70
59881;DHT22;45751;51.380;10.326;2022-07-29T00:27:15;19.10;46.80
59881;DHT22;45751;51.380;10.326;2022-07-29T00:29:42;19.00;46.80
59881;DHT22;45751;51.380;10.326;2022-07-29T00:32:09;19.00;47.10
59881;DHT22;45751;51.380;10.326;2022-07-29T00:34:36;19.00;47.50
59881;DHT22;45751;51.380;10.326;2022-07-29T00:37:21;18.90;47.40
59881;DHT22;45751;51.380;10.326;2022-07-29T00:39:48;18.90;47.50
59881;DHT22;45751;51.380;10.326;2022-07-29T00:42:15;18.80;47.70
59881;DHT22;45751;51.380;10.326;2022-07-29T00:44:43;18.80;49.10
59881;DHT22;45751;51.380;10.326;2022-07-29T00:47:11;18.70;47.90
59881;DHT22;45751;51.380;10.326;2022-07-29T00:49:40;18.70;48.30
59881;DHT22;45751;51.380;10.326;2022-07-29T00:52:09;18.60;48.30
59881;DHT22;45751;51.380;10.326;2022-07-29T00:54:38;18.60;48.40
59881;DHT22;45751;51.380;10.326;2022-07-29T00:57:11;18.60;48.40
59881;DHT22;45751;51.380;10.326;2022-07-29T00:59:38;18.60;48.50
59881;DHT22;45751;51.380;10.326;2022-07-29T01:02:05;18.60;48.60
59881;DHT22;45751;51.380;10.326;2022-07-29T01:07:07;18.50;48.70
59881;DHT22;45751;51.380;10.326;2022-07-29T01:09:35;18.50;48.80
59881;DHT22;45751;51.380;10.326;2022-07-29T01:12:24;18.50;49.00
59881;DHT22;45751;51.380;10.326;2022-07-29T01:14:52;18.40;49.10
59881;DHT22;45751;51.380;10.326;2022-07-29T01:20:26;18.40;49.20
59881;DHT22;45751;51.380;10.326;2022-07-29T01:31:22;18.40;49.80
59881;DHT22;45751;51.380;10.326;2022-07-29T01:33:58;18.30;50.10
59881;DHT22;45751;51.380;10.326;2022-07-29T01:36:43;18.30;50.10
59881;DHT22;45751;51.380;10.326;2022-07-29T01:41:58;18.30;50.20
59881;DHT22;45751;51.380;10.326;2022-07-29T01:44:32;18.30;50.40
59881;DHT22;45751;51.380;10.326;2022-07-29T01:47:05;18.30;50.30
59881;DHT22;45751;51.380;10.326;2022-07-29T01:49:37;18.30;50.40
59881;DHT22;45751;51.380;10.326;2022-07-29T01:52:10;18.30;50.50
59881;DHT22;45751;51.380;10.326;2022-07-29T01:54:44;18.30;50.60
59881;DHT22;45751;51.380;10.326;2022-07-29T01:57:14;18.20;50.80
59881;DHT22;45751;51.380;10.326;2022-07-29T01:59:45;18.20;50.60
59881;DHT22;45751;51.380;10.326;2022-07-29T02:02:15;18.30;52.20
59881;DHT22;45751;51.380;10.326;2022-07-29T02:04:44;18.30;50.90
59881;DHT22;45751;51.380;10.326;2022-07-29T02:07:19;18.20;50.80
59881;DHT22;45751;51.380;10.326;2022-07-29T02:09:47;18.20;50.80
59881;DHT22;45751;51.380;10.326;2022-07-29T02:12:18;18.20;51.00
59881;DHT22;45751;51.380;10.326;2022-07-29T02:14:47;18.20;51.10
59881;DHT22;45751;51.380;10.326;2022-07-29T02:17:22;18.20;51.20
59881;DHT22;45751;51.380;10.326;2022-07-29T02:19:51;18.00;51.20
59881;DHT22;45751;51.380;10.326;2022-07-29T02:22:19;18.10;51.30
59881;DHT22;45751;51.380;10.326;2022-07-29T02:24:49;18.10;51.30
59881;DHT22;45751;51.380;10.326;2022-07-29T02:27:18;18.10;51.30
59881;DHT22;45751;51.380;10.326;2022-07-29T02:29:47;18.10;51.50
59881;DHT22;45751;51.380;10.326;2022-07-29T02:32:16;18.00;51.40
59881;DHT22;45751;51.380;10.326;2022-07-29T02:34:44;18.10;51.50
59881;DHT22;45751;51.380;10.326;2022-07-29T02:37:12;18.00;51.50
59881;DHT22;45751;51.380;10.326;2022-07-29T02:39:42;18.00;51.40
59881;DHT22;45751;51.380;10.326;2022-07-29T02:42:12;18.00;51.50
59881;DHT22;45751;51.380;10.326;2022-07-29T02:44:40;18.00;51.50
59881;DHT22;45751;51.380;10.326;2022-07-29T02:50:02;18.00;51.90
59881;DHT22;45751;51.380;10.326;2022-07-29T02:52:43;17.90;51.90
59881;DHT22;45751;51.380;10.326;2022-07-29T02:57:51;17.90;51.70
59881;DHT22;45751;51.380;10.326;2022-07-29T03:00:23;17.90;51.90
59881;DHT22;45751;51.380;10.326;2022-07-29T03:02:54;17.90;52.10
59881;DHT22;45751;51.380;10.326;2022-07-29T03:05:22;17.90;52.10
59881;DHT22;45751;51.380;10.326;2022-07-29T03:07:55;17.90;51.80
59881;DHT22;45751;51.380;10.326;2022-07-29T03:10:25;17.90;51.90
59881;DHT22;45751;51.380;10.326;2022-07-29T03:12:53;17.90;52.30
59881;DHT22;45751;51.380;10.326;2022-07-29T03:15:20;17.90;52.30
59881;DHT22;45751;51.380;10.326;2022-07-29T03:17:50;17.90;52.20
59881;DHT22;45751;51.380;10.326;2022-07-29T03:20:18;17.70;52.00
59881;DHT22;45751;51.380;10.326;2022-07-29T03:22:45;17.90;52.50
59881;DHT22;45751;51.380;10.326;2022-07-29T03:25:17;17.80;52.30
59881;DHT22;45751;51.380;10.326;2022-07-29T03:27:45;17.90;52.40
59881;DHT22;45751;51.380;10.326;2022-07-29T03:30:13;17.90;52.50
59881;DHT22;45751;51.380;10.326;2022-07-29T03:32:47;17.80;52.60
59881;DHT22;45751;51.380;10.326;2022-07-29T03:35:14;17.90;52.70
59881;DHT22;45751;51.380;10.326;2022-07-29T03:37:44;17.80;52.70
59881;DHT22;45751;51.380;10.326;2022-07-29T03:40:16;17.80;52.90
59881;DHT22;45751;51.380;10.326;2022-07-29T03:42:45;17.80;53.00
59881;DHT22;45751;51.380;10.326;2022-07-29T03:45:17;17.80;53.10
59881;DHT22;45751;51.380;10.326;2022-07-29T03:47:53;17.80;53.00
59881;DHT22;45751;51.380;10.326;2022-07-29T03:50:28;17.80;53.00
59881;DHT22;45751;51.380;10.326;2022-07-29T03:52:57;17.80;53.20
59881;DHT22;45751;51.380;10.326;2022-07-29T03:55:25;17.70;53.10
59881;DHT22;45751;51.380;10.326;2022-07-29T03:57:53;17.60;53.50
59881;DHT22;45751;51.380;10.326;2022-07-29T04:00:23;17.70;53.50
59881;DHT22;45751;51.380;10.326;2022-07-29T04:02:50;17.70;53.50
59881;DHT22;45751;51.380;10.326;2022-07-29T04:05:18;17.70;53.70
59881;DHT22;45751;51.380;10.326;2022-07-29T04:07:46;17.70;54.00
59881;DHT22;45751;51.380;10.326;2022-07-29T04:10:14;17.70;54.10
59881;DHT22;45751;51.380;10.326;2022-07-29T04:12:42;17.70;54.10
59881;DHT22;45751;51.380;10.326;2022-07-29T04:15:09;17.70;54.30
59881;DHT22;45751;51.380;10.326;2022-07-29T04:17:36;17.60;54.50
59881;DHT22;45751;51.380;10.326;2022-07-29T04:20:04;17.60;54.90
59881;DHT22;45751;51.380;10.326;2022-07-29T04:22:31;17.60;55.00
59881;DHT22;45751;51.380;10.326;2022-07-29T04:24:58;17.60;55.00
59881;DHT22;45751;51.380;10.326;2022-07-29T04:27:29;17.60;55.20
59881;DHT22;45751;51.380;10.326;2022-07-29T04:29:56;17.60;55.30
59881;DHT22;45751;51.380;10.326;2022-07-29T04:32:24;17.50;55.40
59881;DHT22;45751;51.380;10.326;2022-07-29T04:34:51;17.50;55.20
59881;DHT22;45751;51.380;10.326;2022-07-29T04:37:18;17.50;55.30
59881;DHT22;45751;51.380;10.326;2022-07-29T04:39:45;17.50;55.60
59881;DHT22;45751;51.380;10.326;2022-07-29T04:42:11;17.50;55.90
59881;DHT22;45751;51.380;10.326;2022-07-29T04:44:39;17.40;55.90
59881;DHT22;45751;51.380;10.326;2022-07-29T04:47:09;17.40;56.20
59881;DHT22;45751;51.380;10.326;2022-07-29T04:49:38;17.40;56.20
59881;DHT22;45751;51.380;10.326;2022-07-29T04:52:06;17.30;56.40
59881;DHT22;45751;51.380;10.326;2022-07-29T04:54:33;17.40;56.50
59881;DHT22;45751;51.380;10.326;2022-07-29T04:57:00;17.30;56.90
59881;DHT22;45751;51.380;10.326;2022-07-29T04:59:26;17.30;56.90
59881;DHT22;45751;51.380;10.326;2022-07-29T05:01:53;17.30;57.10
59881;DHT22;45751;51.380;10.326;2022-07-29T05:04:20;17.30;57.30
59881;DHT22;45751;51.380;10.326;2022-07-29T05:06:47;17.30;57.60
59881;DHT22;45751;51.380;10.326;2022-07-29T05:09:14;17.30;57.70
59881;DHT22;45751;51.380;10.326;2022-07-29T05:11:41;17.30;58.00
59881;DHT22;45751;51.380;10.326;2022-07-29T05:14:08;17.30;57.70
59881;DHT22;45751;51.380;10.326;2022-07-29T05:16:35;17.30;57.60
59881;DHT22;45751;51.380;10.326;2022-07-29T05:19:02;17.30;57.70
59881;DHT22;45751;51.380;10.326;2022-07-29T05:21:28;17.30;57.50
59881;DHT22;45751;51.380;10.326;2022-07-29T05:23:55;17.30;57.20
59881;DHT22;45751;51.380;10.326;2022-07-29T05:26:22;17.30;57.00
59881;DHT22;45751;51.380;10.326;2022-07-29T05:28:49;17.30;57.30
59881;DHT22;45751;51.380;10.326;2022-07-29T05:31:16;17.30;57.50
59881;DHT22;45751;51.380;10.326;2022-07-29T05:33:43;17.30;58.80
59881;DHT22;45751;51.380;10.326;2022-07-29T05:36:10;17.30;57.50
59881;DHT22;45751;51.380;10.326;2022-07-29T05:38:37;17.30;57.40
59881;DHT22;45751;51.380;10.326;2022-07-29T05:41:04;17.30;57.30
59881;DHT22;45751;51.380;10.326;2022-07-29T05:43:31;17.30;57.60
59881;DHT22;45751;51.380;10.326;2022-07-29T05:45:58;17.30;57.70
59881;DHT22;45751;51.380;10.326;2022-07-29T05:48:25;17.30;57.50
59881;DHT22;45751;51.380;10.326;2022-07-29T05:50:52;17.30;57.80
59881;DHT22;45751;51.380;10.326;2022-07-29T05:53:19;17.30;57.50
59881;DHT22;45751;51.380;10.326;2022-07-29T05:55:47;17.30;57.50
59881;DHT22;45751;51.380;10.326;2022-07-29T05:58:14;17.30;57.50
59881;DHT22;45751;51.380;10.326;2022-07-29T06:00:41;17.30;57.80
59881;DHT22;45751;51.380;10.326;2022-07-29T06:03:08;17.40;58.00
59881;DHT22;45751;51.380;10.326;2022-07-29T06:05:35;17.40;57.90
59881;DHT22;45751;51.380;10.326;2022-07-29T06:08:02;17.40;57.80
59881;DHT22;45751;51.380;10.326;2022-07-29T06:10:29;17.40;57.80
59881;DHT22;45751;51.380;10.326;2022-07-29T06:12:55;17.50;58.10
59881;DHT22;45751;51.380;10.326;2022-07-29T06:15:23;17.50;57.90
59881;DHT22;45751;51.380;10.326;2022-07-29T06:17:49;17.60;57.70
59881;DHT22;45751;51.380;10.326;2022-07-29T06:20:27;17.60;57.60
59881;DHT22;45751;51.380;10.326;2022-07-29T06:22:56;17.70;57.90
59881;DHT22;45751;51.380;10.326;2022-07-29T06:25:23;17.80;57.70
59881;DHT22;45751;51.380;10.326;2022-07-29T06:27:50;17.90;57.80
59881;DHT22;45751;51.380;10.326;2022-07-29T06:30:17;18.00;57.80
59881;DHT22;45751;51.380;10.326;2022-07-29T06:32:43;18.00;56.90
59881;DHT22;45751;51.380;10.326;2022-07-29T06:35:10;18.10;56.70
59881;DHT22;45751;51.380;10.326;2022-07-29T06:37:57;18.20;56.50
59881;DHT22;45751;51.380;10.326;2022-07-29T06:40:25;18.20;56.70
59881;DHT22;45751;51.380;10.326;2022-07-29T06:43:11;18.30;56.80
59881;DHT22;45751;51.380;10.326;2022-07-29T06:45:38;18.30;56.50
59881;DHT22;45751;51.380;10.326;2022-07-29T06:48:08;18.40;56.20
59881;DHT22;45751;51.380;10.326;2022-07-29T06:50:35;18.40;56.20
59881;DHT22;45751;51.380;10.326;2022-07-29T06:53:03;18.50;56.20
59881;DHT22;45751;51.380;10.326;2022-07-29T06:55:29;18.50;56.50
59881;DHT22;45751;51.380;10.326;2022-07-29T06:57:56;18.60;56.30
59881;DHT22;45751;51.380;10.326;2022-07-29T07:00:23;18.70;56.20
59881;DHT22;45751;51.380;10.326;2022-07-29T07:02:50;18.70;55.80
59881;DHT22;45751;51.380;10.326;2022-07-29T07:05:17;18.80;55.80
59881;DHT22;45751;51.380;10.326;2022-07-29T07:07:44;18.90;55.50
59881;DHT22;45751;51.380;10.326;2022-07-29T07:10:11;18.90;55.60
59881;DHT22;45751;51.380;10.326;2022-07-29T07:12:38;19.00;55.30
59881;DHT22;45751;51.380;10.326;2022-07-29T07:15:05;19.00;54.80
59881;DHT22;45751;51.380;10.326;2022-07-29T07:17:32;19.00;54.80
59881;DHT22;45751;51.380;10.326;2022-07-29T07:19:59;19.10;54.70
59881;DHT22;45751;51.380;10.326;2022-07-29T07:22:26;19.10;55.10
59881;DHT22;45751;51.380;10.326;2022-07-29T07:24:52;19.20;55.40
59881;DHT22;45751;51.380;10.326;2022-07-29T07:27:19;19.30;55.40
59881;DHT22;45751;51.380;10.326;2022-07-29T07:29:46;19.30;55.10
59881;DHT22;45751;51.380;10.326;2022-07-29T07:32:13;19.30;54.80
59881;DHT22;45751;51.380;10.326;2022-07-29T07:34:43;19.40;54.80
59881;DHT22;45751;51.380;10.326;2022-07-29T07:37:10;19.40;54.50
59881;DHT22;45751;51.380;10.326;2022-07-29T07:39:37;19.50;54.20
59881;DHT22;45751;51.380;10.326;2022-07-29T07:42:03;19.60;53.90
59881;DHT22;45751;51.380;10.326;2022-07-29T07:44:30;19.60;53.70
59881;DHT22;45751;51.380;10.326;2022-07-29T07:46:57;19.70;54.00
59881;DHT22;45751;51.380;10.326;2022-07-29T07:49:38;19.70;54.10
59881;DHT22;45751;51.380;10.326;2022-07-29T07:52:07;19.80;53.70
59881;DHT22;45751;51.380;10.326;2022-07-29T07:54:34;19.80;53.40
59881;DHT22;45751;51.380;10.326;2022-07-29T07:57:00;19.80;53.50
59881;DHT22;45751;51.380;10.326;2022-07-29T07:59:27;19.90;53.40
59881;DHT22;45751;51.380;10.326;2022-07-29T08:01:54;20.00;53.30
59881;DHT22;45751;51.380;10.326;2022-07-29T08:04:22;20.00;53.30
59881;DHT22;45751;51.380;10.326;2022-07-29T08:06:54;20.00;53.00
59881;DHT22;45751;51.380;10.326;2022-07-29T08:09:23;20.00;53.00
59881;DHT22;45751;51.380;10.326;2022-07-29T08:11:57;20.20;53.10
59881;DHT22;45751;51.380;10.326;2022-07-29T08:14:25;20.20;52.80
59881;DHT22;45751;51.380;10.326;2022-07-29T08:16:52;20.30;52.10
59881;DHT22;45751;51.380;10.326;2022-07-29T08:19:19;20.40;52.10
59881;DHT22;45751;51.380;10.326;2022-07-29T08:21:46;20.50;52.10
59881;DHT22;45751;51.380;10.326;2022-07-29T08:24:13;20.50;51.90
59881;DHT22;45751;51.380;10.326;2022-07-29T08:26:58;20.60;51.30
59881;DHT22;45751;51.380;10.326;2022-07-29T08:29:25;20.70;51.20
59881;DHT22;45751;51.380;10.326;2022-07-29T08:31:52;20.90;51.00
59881;DHT22;45751;51.380;10.326;2022-07-29T08:34:19;21.00;50.20
59881;DHT22;45751;51.380;10.326;2022-07-29T08:36:54;21.00;50.60
59881;DHT22;45751;51.380;10.326;2022-07-29T08:39:21;21.10;50.80
59881;DHT22;45751;51.380;10.326;2022-07-29T08:41:48;21.10;50.30
59881;DHT22;45751;51.380;10.326;2022-07-29T08:44:23;21.10;50.00
59881;DHT22;45751;51.380;10.326;2022-07-29T08:46:57;21.20;50.20
59881;DHT22;45751;51.380;10.326;2022-07-29T08:49:23;21.20;49.80
59881;DHT22;45751;51.380;10.326;2022-07-29T08:51:51;21.30;49.60
59881;DHT22;45751;51.380;10.326;2022-07-29T08:54:21;21.40;49.40
59881;DHT22;45751;51.380;10.326;2022-07-29T08:56:51;21.40;49.20
59881;DHT22;45751;51.380;10.326;2022-07-29T08:59:22;21.40;48.60
59881;DHT22;45751;51.380;10.326;2022-07-29T09:01:52;21.50;48.60
59881;DHT22;45751;51.380;10.326;2022-07-29T09:04:21;21.40;48.40
59881;DHT22;45751;51.380;10.326;2022-07-29T09:06:52;21.40;48.30
59881;DHT22;45751;51.380;10.326;2022-07-29T09:09:21;21.50;48.80
59881;DHT22;45751;51.380;10.326;2022-07-29T09:11:48;21.40;49.10
59881;DHT22;45751;51.380;10.326;2022-07-29T09:14:14;21.50;48.90
59881;DHT22;45751;51.380;10.326;2022-07-29T09:16:49;21.40;48.80
59881;DHT22;45751;51.380;10.326;2022-07-29T09:19:31;21.40;48.60
59881;DHT22;45751;51.380;10.326;2022-07-29T09:22:01;21.30;48.40
59881;DHT22;45751;51.380;10.326;2022-07-29T09:24:44;21.40;48.80
59881;DHT22;45751;51.380;10.326;2022-07-29T09:27:19;21.30;49.30
59881;DHT22;45751;51.380;10.326;2022-07-29T09:30:08;21.30;49.50
59881;DHT22;45751;51.380;10.326;2022-07-29T09:32:59;21.30;50.40
59881;DHT22;45751;51.380;10.326;2022-07-29T09:35:29;21.30;50.50
59881;DHT22;45751;51.380;10.326;2022-07-29T09:37:57;21.40;50.20
59881;DHT22;45751;51.380;10.326;2022-07-29T09:40:26;21.40;50.20
59881;DHT22;45751;51.380;10.326;2022-07-29T09:42:54;21.40;50.30
59881;DHT22;45751;51.380;10.326;2022-07-29T09:45:30;21.40;50.50
59881;DHT22;45751;51.380;10.326;2022-07-29T09:47:58;21.50;50.20
59881;DHT22;45751;51.380;10.326;2022-07-29T09:50:39;21.60;49.90
59881;DHT22;45751;51.380;10.326;2022-07-29T09:53:07;21.70;49.70
59881;DHT22;45751;51.380;10.326;2022-07-29T09:55:51;21.70;49.80
59881;DHT22;45751;51.380;10.326;2022-07-29T09:58:19;21.90;49.80
59881;DHT22;45751;51.380;10.326;2022-07-29T10:00:47;21.90;50.00
59881;DHT22;45751;51.380;10.326;2022-07-29T10:03:15;22.10;49.50
59881;DHT22;45751;51.380;10.326;2022-07-29T10:05:43;22.20;49.10
59881;DHT22;45751;51.380;10.326;2022-07-29T10:08:11;22.30;48.50
59881;DHT22;45751;51.380;10.326;2022-07-29T10:10:41;22.40;48.50
59881;DHT22;45751;51.380;10.326;2022-07-29T10:13:13;22.50;48.60
59881;DHT22;45751;51.380;10.326;2022-07-29T10:15:44;22.60;48.40
59881;DHT22;45751;51.380;10.326;2022-07-29T10:18:13;22.70;48.20
59881;DHT22;45751;51.380;10.326;2022-07-29T10:20:41;22.80;47.60
59881;DHT22;45751;51.380;10.326;2022-07-29T10:23:09;22.90;47.20
59881;DHT22;45751;51.380;10.326;2022-07-29T10:25:35;23.00;47.00
59881;DHT22;45751;51.380;10.326;2022-07-29T10:28:02;23.10;45.90
59881;DHT22;45751;51.380;10.326;2022-07-29T10:30:30;23.10;45.70
59881;DHT22;45751;51.380;10.326;2022-07-29T10:46:28;23.30;41.20
59881;DHT22;45751;51.380;10.326;2022-07-29T10:54:19;23.40;40.10
59881;DHT22;45751;51.380;10.326;2022-07-29T10:56:47;23.50;40.10
59881;DHT22;45751;51.380;10.326;2022-07-29T11:01:50;23.70;39.30
59881;DHT22;45751;51.380;10.326;2022-07-29T11:07:26;23.90;38.70
59881;DHT22;45751;51.380;10.326;2022-07-29T11:12:47;24.00;37.90
59881;DHT22;45751;51.380;10.326;2022-07-29T11:15:21;24.00;38.10
59881;DHT22;45751;51.380;10.326;2022-07-29T11:23:00;24.30;37.90
59881;DHT22;45751;51.380;10.326;2022-07-29T11:25:27;24.20;37.60
59881;DHT22;45751;51.380;10.326;2022-07-29T11:28:17;24.30;37.20
59881;DHT22;45751;51.380;10.326;2022-07-29T11:30:52;24.30;37.50
59881;DHT22;45751;51.380;10.326;2022-07-29T11:33:31;24.20;37.30
59881;DHT22;45751;51.380;10.326;2022-07-29T11:36:18;24.20;37.30
59881;DHT22;45751;51.380;10.326;2022-07-29T11:39:26;24.20;37.30
59881;DHT22;45751;51.380;10.326;2022-07-29T11:47:54;24.40;36.30
59881;DHT22;45751;51.380;10.326;2022-07-29T11:50:33;24.40;36.80
59881;DHT22;45751;51.380;10.326;2022-07-29T11:53:09;24.50;36.00
59881;DHT22;45751;51.380;10.326;2022-07-29T11:55:39;24.60;35.40
59881;DHT22;45751;51.380;10.326;2022-07-29T11:58:21;24.60;35.70
59881;DHT22;45751;51.380;10.326;2022-07-29T12:00:51;24.60;35.50
59881;DHT22;45751;51.380;10.326;2022-07-29T12:03:25;24.60;35.40
59881;DHT22;45751;51.380;10.326;2022-07-29T12:06:15;24.70;36.10
59881;DHT22;45751;51.380;10.326;2022-07-29T12:08:46;24.80;35.90
59881;DHT22;45751;51.380;10.326;2022-07-29T12:11:18;24.90;35.20
59881;DHT22;45751;51.380;10.326;2022-07-29T12:13:48;25.00;35.50
59881;DHT22;45751;51.380;10.326;2022-07-29T12:16:15;25.00;35.70
59881;DHT22;45751;51.380;10.326;2022-07-29T12:18:59;25.00;35.10
59881;DHT22;45751;51.380;10.326;2022-07-29T12:21:44;25.00;35.20
59881;DHT22;45751;51.380;10.326;2022-07-29T12:24:22;25.00;35.30
59881;DHT22;45751;51.380;10.326;2022-07-29T12:26:57;25.00;35.30
59881;DHT22;45751;51.380;10.326;2022-07-29T12:29:25;25.00;35.40
59881;DHT22;45751;51.380;10.326;2022-07-29T12:32:02;24.90;36.30
59881;DHT22;45751;51.380;10.326;2022-07-29T12:34:30;25.00;35.50
59881;DHT22;45751;51.380;10.326;2022-07-29T12:36:57;25.00;36.30
59881;DHT22;45751;51.380;10.326;2022-07-29T12:39:25;25.00;36.00
59881;DHT22;45751;51.380;10.326;2022-07-29T12:41:54;25.00;35.40
59881;DHT22;45751;51.380;10.326;2022-07-29T12:44:47;25.00;36.00
59881;DHT22;45751;51.380;10.326;2022-07-29T12:47:15;25.10;35.50
59881;DHT22;45751;51.380;10.326;2022-07-29T12:49:42;25.20;34.80
59881;DHT22;45751;51.380;10.326;2022-07-29T12:52:26;25.30;35.10
59881;DHT22;45751;51.380;10.326;2022-07-29T12:54:53;25.40;35.50
59881;DHT22;45751;51.380;10.326;2022-07-29T12:57:20;25.60;35.50
59881;DHT22;45751;51.380;10.326;2022-07-29T13:00:07;25.90;35.10
59881;DHT22;45751;51.380;10.326;2022-07-29T13:02:35;26.10;33.80
59881;DHT22;45751;51.380;10.326;2022-07-29T13:05:04;26.20;33.20
59881;DHT22;45751;51.380;10.326;2022-07-29T13:07:32;26.30;32.70
59881;DHT22;45751;51.380;10.326;2022-07-29T13:10:21;26.40;32.80
59881;DHT22;45751;51.380;10.326;2022-07-29T13:15:30;26.60;32.90
59881;DHT22;45751;51.380;10.326;2022-07-29T13:17:57;26.70;32.80
59881;DHT22;45751;51.380;10.326;2022-07-29T13:20:27;26.80;32.70
59881;DHT22;45751;51.380;10.326;2022-07-29T13:22:59;26.90;33.10
59881;DHT22;45751;51.380;10.326;2022-07-29T13:25:31;27.10;33.20
59881;DHT22;45751;51.380;10.326;2022-07-29T13:27:59;27.20;32.70
59881;DHT22;45751;51.380;10.326;2022-07-29T13:30:26;27.40;33.20
59881;DHT22;45751;51.380;10.326;2022-07-29T13:32:53;27.50;32.70
59881;DHT22;45751;51.380;10.326;2022-07-29T13:35:21;27.80;32.50
59881;DHT22;45751;51.380;10.326;2022-07-29T13:37:48;27.90;31.60
59881;DHT22;45751;51.380;10.326;2022-07-29T13:40:17;28.10;31.20
59881;DHT22;45751;51.380;10.326;2022-07-29T13:42:44;28.30;31.10
59881;DHT22;45751;51.380;10.326;2022-07-29T13:45:12;28.40;30.80
59881;DHT22;45751;51.380;10.326;2022-07-29T13:47:39;28.50;30.40
59881;DHT22;45751;51.380;10.326;2022-07-29T13:50:13;28.50;30.00
59881;DHT22;45751;51.380;10.326;2022-07-29T13:52:39;28.50;29.90
59881;DHT22;45751;51.380;10.326;2022-07-29T13:55:07;28.50;29.80
59881;DHT22;45751;51.380;10.326;2022-07-29T13:57:34;28.50;31.00
59881;DHT22;45751;51.380;10.326;2022-07-29T14:00:02;28.50;30.00
59881;DHT22;45751;51.380;10.326;2022-07-29T14:02:34;28.70;29.40
59881;DHT22;45751;51.380;10.326;2022-07-29T14:05:00;29.00;29.70
59881;DHT22;45751;51.380;10.326;2022-07-29T14:07:34;29.40;29.10
59881;DHT22;45751;51.380;10.326;2022-07-29T14:10:00;29.60;29.00
59881;DHT22;45751;51.380;10.326;2022-07-29T14:12:27;29.80;28.70
59881;DHT22;45751;51.380;10.326;2022-07-29T14:14:54;30.00;28.30
59881;DHT22;45751;51.380;10.326;2022-07-29T14:17:21;30.00;27.90
59881;DHT22;45751;51.380;10.326;2022-07-29T14:19:48;30.00;27.70
59881;DHT22;45751;51.380;10.326;2022-07-29T14:22:15;29.90;27.80
59881;DHT22;45751;51.380;10.326;2022-07-29T14:24:42;29.70;27.90
59881;DHT22;45751;51.380;10.326;2022-07-29T14:27:09;29.50;28.30
59881;DHT22;45751;51.380;10.326;2022-07-29T14:29:36;29.40;28.20
59881;DHT22;45751;51.380;10.326;2022-07-29T14:32:08;29.20;28.50
59881;DHT22;45751;51.380;10.326;2022-07-29T14:34:37;29.10;28.70
59881;DHT22;45751;51.380;10.326;2022-07-29T14:37:04;28.90;29.40
59881;DHT22;45751;51.380;10.326;2022-07-29T14:39:32;28.90;29.40
59881;DHT22;45751;51.380;10.326;2022-07-29T14:42:05;28.70;29.40
59881;DHT22;45751;51.380;10.326;2022-07-29T14:44:32;28.60;29.30
59881;DHT22;45751;51.380;10.326;2022-07-29T14:46:59;28.50;29.70
59881;DHT22;45751;51.380;10.326;2022-07-29T14:49:33;28.40;29.70
59881;DHT22;45751;51.380;10.326;2022-07-29T14:52:00;28.30;29.90
59881;DHT22;45751;51.380;10.326;2022-07-29T14:54:27;28.20;30.10
59881;DHT22;45751;51.380;10.326;2022-07-29T14:56:54;28.10;30.00
59881;DHT22;45751;51.380;10.326;2022-07-29T14:59:24;28.00;30.60
59881;DHT22;45751;51.380;10.326;2022-07-29T15:01:51;27.90;30.50
59881;DHT22;45751;51.380;10.326;2022-07-29T15:04:18;27.80;30.20
59881;DHT22;45751;51.380;10.326;2022-07-29T15:06:45;27.70;30.10
59881;DHT22;45751;51.380;10.326;2022-07-29T15:09:12;27.60;30.50
59881;DHT22;45751;51.380;10.326;2022-07-29T15:11:39;27.50;31.10
59881;DHT22;45751;51.380;10.326;2022-07-29T15:14:06;27.50;31.10
59881;DHT22;45751;51.380;10.326;2022-07-29T15:16:36;27.40;31.20
59881;DHT22;45751;51.380;10.326;2022-07-29T15:19:04;27.40;31.30
59881;DHT22;45751;51.380;10.326;2022-07-29T15:21:31;27.40;31.20
59881;DHT22;45751;51.380;10.326;2022-07-29T15:23:58;27.30;30.90
59881;DHT22;45751;51.380;10.326;2022-07-29T15:26:25;27.20;31.30
59881;DHT22;45751;51.380;10.326;2022-07-29T15:28:52;27.30;31.40
59881;DHT22;45751;51.380;10.326;2022-07-29T15:31:19;27.30;31.80
59881;DHT22;45751;51.380;10.326;2022-07-29T15:33:46;27.20;31.30
59881;DHT22;45751;51.380;10.326;2022-07-29T15:36:13;27.30;31.20
59881;DHT22;45751;51.380;10.326;2022-07-29T15:39:03;27.20;31.20
59881;DHT22;45751;51.380;10.326;2022-07-29T15:41:38;27.30;31.40
59881;DHT22;45751;51.380;10.326;2022-07-29T15:44:05;27.30;31.20
59881;DHT22;45751;51.380;10.326;2022-07-29T15:46:32;27.30;31.00
59881;DHT22;45751;51.380;10.326;2022-07-29T15:49:18;27.40;31.10
59881;DHT22;45751;51.380;10.326;2022-07-29T15:51:48;27.40;31.40
59881;DHT22;45751;51.380;10.326;2022-07-29T15:54:15;27.50;31.30
59881;DHT22;45751;51.380;10.326;2022-07-29T15:56:43;27.60;30.50
59881;DHT22;45751;51.380;10.326;2022-07-29T15:59:09;27.80;30.70
59881;DHT22;45751;51.380;10.326;2022-07-29T16:01:48;27.90;30.50
59881;DHT22;45751;51.380;10.326;2022-07-29T16:04:15;28.10;30.20
59881;DHT22;45751;51.380;10.326;2022-07-29T16:06:43;28.20;30.10
59881;DHT22;45751;51.380;10.326;2022-07-29T16:09:10;28.40;29.30
59881;DHT22;45751;51.380;10.326;2022-07-29T16:11:38;28.60;29.40
59881;DHT22;45751;51.380;10.326;2022-07-29T16:14:05;28.80;28.80
59881;DHT22;45751;51.380;10.326;2022-07-29T16:16:34;29.00;28.60
59881;DHT22;45751;51.380;10.326;2022-07-29T16:19:02;29.10;27.90
59881;DHT22;45751;51.380;10.326;2022-07-29T16:21:29;29.10;27.70
59881;DHT22;45751;51.380;10.326;2022-07-29T16:23:58;29.00;27.90
59881;DHT22;45751;51.380;10.326;2022-07-29T16:26:26;28.90;27.90
59881;DHT22;45751;51.380;10.326;2022-07-29T16:28:53;28.80;28.20
59881;DHT22;45751;51.380;10.326;2022-07-29T16:31:20;28.70;27.80
59881;DHT22;45751;51.380;10.326;2022-07-29T16:33:49;28.60;27.90
59881;DHT22;45751;51.380;10.326;2022-07-29T16:36:21;28.50;28.00